Time;durP1;ratioP1;P1;durP2;ratioP2;P2;SDS_P1;SDS_P2;PMS_P1;PMS_P2;Temp;Humidity;BMP_temperature;BMP_pressure;BME280_temperature;BME280_humidity;BME280_pressure;Samples;Min_cycle;Max_cycle;Signal;HPM_P1;HPM_P2
2023/01/18 00:00:43;;;;;;;7.23;5.37;;;2.50;99.90;;;;;;5048037;28;20720;-87
2023/01/18 00:03:10;;;;;;;5.90;4.43;;;2.60;99.90;;;;;;5048992;28;20173;-87
2023/01/18 00:05:39;;;;;;;6.87;4.97;;;2.50;99.90;;;;;;5048769;28;20170;-86
2023/01/18 00:08:06;;;;;;;5.67;4.70;;;2.50;99.90;;;;;;5048614;28;20199;-85
2023/01/18 00:10:32;;;;;;;6.60;4.87;;;2.40;99.90;;;;;;5047489;28;20208;-88
2023/01/18 00:12:58;;;;;;;6.97;5.13;;;2.40;99.90;;;;;;5046724;28;20204;-87
2023/01/18 00:15:24;;;;;;;6.20;5.40;;;2.40;99.90;;;;;;5046982;28;20193;-86
2023/01/18 00:17:52;;;;;;;5.40;4.80;;;2.40;99.90;;;;;;5060523;28;20228;-84
2023/01/18 00:20:23;;;;;;;7.43;5.20;;;2.40;99.90;;;;;;5067368;28;20188;-85
2023/01/18 00:22:50;;;;;;;5.13;4.60;;;2.40;99.90;;;;;;5067237;28;20769;-88
2023/01/18 00:25:17;;;;;;;6.67;4.87;;;2.50;99.90;;;;;;5061581;28;20192;-87
2023/01/18 00:27:48;;;;;;;5.43;4.87;;;2.50;99.90;;;;;;5047354;28;20211;-87
2023/01/18 00:30:19;;;;;;;5.17;4.27;;;2.50;99.90;;;;;;5047617;28;20193;-89
2023/01/18 00:32:53;;;;;;;7.27;5.03;;;2.60;99.90;;;;;;5047088;28;20261;-85
2023/01/18 00:35:21;;;;;;;5.50;4.67;;;2.60;99.90;;;;;;5047666;28;20248;-86
2023/01/18 00:37:48;;;;;;;7.57;5.23;;;2.60;99.90;;;;;;5046665;28;20257;-87
2023/01/18 00:40:14;;;;;;;6.43;5.30;;;2.60;99.90;;;;;;5047557;28;20177;-87
2023/01/18 00:45:25;;;;;;;5.70;4.50;;;2.80;99.90;;;;;;5063156;28;20207;-87
2023/01/18 00:47:51;;;;;;;7.53;5.33;;;2.80;99.90;;;;;;5047959;28;20216;-88
2023/01/18 00:50:18;;;;;;;6.93;5.23;;;2.90;99.90;;;;;;5045374;28;20239;-87
2023/01/18 00:52:45;;;;;;;7.43;5.50;;;2.80;99.90;;;;;;5045476;28;20254;-88
2023/01/18 00:55:11;;;;;;;8.20;5.33;;;2.70;99.90;;;;;;5046576;28;20211;-90
2023/01/18 00:57:37;;;;;;;5.50;4.97;;;2.80;99.90;;;;;;5045495;28;20703;-88
2023/01/18 01:00:04;;;;;;;6.13;5.20;;;2.70;99.90;;;;;;5044296;28;20193;-88
2023/01/18 01:02:30;;;;;;;7.10;5.93;;;2.60;99.90;;;;;;5045036;28;20196;-88
2023/01/18 01:07:40;;;;;;;6.23;5.63;;;2.70;99.90;;;;;;5025217;28;20220;-87
2023/01/18 01:10:07;;;;;;;6.13;5.03;;;2.80;99.90;;;;;;5026000;28;20264;-90
2023/01/18 01:26:15;;;;;;;6.97;5.67;;;2.50;99.90;;;;;;5065511;28;20171;-85
2023/01/18 01:28:49;;;;;;;6.83;5.57;;;2.50;99.90;;;;;;5050864;28;20245;-86
2023/01/18 01:31:16;;;;;;;6.57;5.37;;;2.40;99.90;;;;;;5025941;28;20214;-86
2023/01/18 01:33:42;;;;;;;6.03;5.43;;;2.30;99.90;;;;;;5044167;28;20197;-86
2023/01/18 01:36:14;;;;;;;6.97;5.37;;;2.30;99.90;;;;;;5045101;28;20772;-87
2023/01/18 01:38:40;;;;;;;5.67;5.07;;;2.40;99.90;;;;;;5049375;28;20181;-86
2023/01/18 01:41:19;;;;;;;5.90;5.30;;;2.30;99.90;;;;;;5047919;28;20196;-85
2023/01/18 01:43:59;;;;;;;7.77;4.93;;;2.40;99.90;;;;;;5029027;28;20178;-86
2023/01/18 01:46:34;;;;;;;6.63;5.10;;;2.50;99.90;;;;;;5029323;28;20859;-87
2023/01/18 01:49:08;;;;;;;6.17;4.80;;;2.50;99.90;;;;;;5037595;28;20250;-87
2023/01/18 01:51:38;;;;;;;6.97;5.10;;;2.60;99.90;;;;;;5048886;28;20219;-87
2023/01/18 01:54:09;;;;;;;7.13;5.37;;;2.50;99.90;;;;;;5048936;28;20202;-90
2023/01/18 01:56:35;;;;;;;6.93;5.30;;;2.50;99.90;;;;;;5048852;28;20201;-85
2023/01/18 01:59:03;;;;;;;5.60;5.10;;;2.50;99.90;;;;;;5049577;28;20244;-87
2023/01/18 02:01:29;;;;;;;5.30;4.73;;;2.60;99.90;;;;;;5048607;28;20185;-86
2023/01/18 02:03:57;;;;;;;5.97;5.20;;;2.70;99.90;;;;;;5048351;28;20223;-87
2023/01/18 02:06:30;;;;;;;5.00;4.53;;;2.70;99.90;;;;;;5049092;28;20215;-89
2023/01/18 02:09:01;;;;;;;6.47;5.03;;;2.70;99.90;;;;;;5049198;28;20177;-87
2023/01/18 02:11:28;;;;;;;4.93;4.43;;;2.70;99.90;;;;;;5050077;28;20177;-86
2023/01/18 02:13:55;;;;;;;6.27;5.53;;;2.70;99.90;;;;;;5049644;28;20201;-87
2023/01/18 02:16:46;;;;;;;6.07;4.93;;;2.70;99.90;;;;;;5050360;28;20197;-87
2023/01/18 02:19:27;;;;;;;5.93;5.10;;;2.60;99.90;;;;;;5069086;28;20206;-90
2023/01/18 02:22:13;;;;;;;6.53;5.13;;;2.60;99.90;;;;;;5065190;28;20185;-88
2023/01/18 02:24:54;;;;;;;6.73;4.93;;;2.80;99.90;;;;;;5049718;28;20594;-85
2023/01/18 02:27:23;;;;;;;5.97;4.90;;;2.90;99.90;;;;;;5050128;28;20201;-88
2023/01/18 02:29:56;;;;;;;6.30;5.50;;;3.00;99.90;;;;;;5028487;28;20185;-89
2023/01/18 02:32:42;;;;;;;6.60;5.17;;;3.10;99.90;;;;;;5029769;28;20209;-89
2023/01/18 02:35:18;;;;;;;5.90;5.30;;;3.20;99.90;;;;;;5026529;28;20193;-89
2023/01/18 02:37:55;;;;;;;6.23;5.33;;;3.30;99.90;;;;;;5057747;28;20192;-91
2023/01/18 02:40:37;;;;;;;5.43;4.93;;;3.30;99.90;;;;;;5068438;28;20667;-88
2023/01/18 02:48:41;;;;;;;7.37;5.33;;;3.30;99.90;;;;;;5058199;28;20219;-89
2023/01/18 02:51:08;;;;;;;5.33;4.83;;;3.30;99.90;;;;;;5055607;28;20222;-86
2023/01/18 02:53:41;;;;;;;5.90;5.30;;;3.40;99.90;;;;;;5045765;28;20243;-85
2023/01/18 02:56:07;;;;;;;5.70;5.20;;;3.50;99.90;;;;;;5046080;28;20260;-85
2023/01/18 02:58:49;;;;;;;7.20;6.33;;;3.50;99.90;;;;;;5045834;28;20189;-86
2023/01/18 03:01:25;;;;;;;6.47;5.73;;;3.40;99.90;;;;;;5045394;28;20177;-85
2023/01/18 03:03:55;;;;;;;5.23;4.73;;;3.40;99.90;;;;;;5045170;28;20204;-86
2023/01/18 03:06:23;;;;;;;6.10;5.43;;;3.40;99.90;;;;;;5045224;28;20280;-87
2023/01/18 03:08:52;;;;;;;6.30;5.40;;;3.40;99.90;;;;;;5045546;28;20207;-88
2023/01/18 03:11:26;;;;;;;8.60;6.50;;;3.40;99.90;;;;;;5045026;28;20654;-86
2023/01/18 03:13:58;;;;;;;6.57;5.90;;;3.40;99.90;;;;;;5045159;28;20223;-86
2023/01/18 03:16:31;;;;;;;7.63;6.20;;;3.40;99.90;;;;;;5047080;28;20199;-86
2023/01/18 03:21:52;;;;;;;8.33;6.13;;;3.20;99.90;;;;;;5045476;28;20227;-85
2023/01/18 03:24:18;;;;;;;7.37;6.47;;;3.20;99.90;;;;;;5045192;28;20179;-87
2023/01/18 03:26:48;;;;;;;9.37;6.63;;;3.10;98.10;;;;;;5043537;28;20277;-87
2023/01/18 03:35:02;;;;;;;7.23;5.83;;;2.80;98.70;;;;;;5025146;28;20184;-88
2023/01/18 03:37:36;;;;;;;6.73;5.83;;;2.60;99.80;;;;;;5036043;28;20213;-87
2023/01/18 03:40:16;;;;;;;8.97;6.27;;;2.50;99.90;;;;;;5045279;28;20172;-87
2023/01/18 03:42:58;;;;;;;9.53;6.50;;;2.50;99.90;;;;;;5026561;28;20169;-86
2023/01/18 03:45:33;;;;;;;7.53;6.60;;;2.50;99.90;;;;;;5026861;28;20199;-87
2023/01/18 03:48:00;;;;;;;6.90;6.20;;;2.40;99.90;;;;;;5027069;28;20215;-87
2023/01/18 03:50:43;;;;;;;8.30;7.17;;;2.40;99.90;;;;;;5031347;28;20213;-87
2023/01/18 03:53:14;;;;;;;11.37;6.80;;;2.40;99.90;;;;;;5045584;28;20184;-86
2023/01/18 03:55:45;;;;;;;9.60;6.97;;;2.50;99.90;;;;;;5026237;28;20162;-87
2023/01/18 03:58:15;;;;;;;7.90;6.73;;;2.50;99.90;;;;;;5025362;28;20200;-87
2023/01/18 04:00:40;;;;;;;7.67;6.63;;;2.50;99.90;;;;;;5025302;28;20170;-86
2023/01/18 04:03:07;;;;;;;9.07;6.80;;;2.50;99.90;;;;;;5025492;28;20185;-86
2023/01/18 04:05:33;;;;;;;7.23;6.10;;;2.50;99.90;;;;;;5035029;28;20181;-85
2023/01/18 04:07:59;;;;;;;7.23;6.50;;;2.50;99.90;;;;;;5045436;28;20671;-88
2023/01/18 04:10:25;;;;;;;7.70;6.90;;;2.50;99.90;;;;;;5045135;28;20269;-85
2023/01/18 04:12:51;;;;;;;6.73;6.00;;;2.50;99.90;;;;;;5045015;28;20200;-87
2023/01/18 04:15:18;;;;;;;6.40;5.83;;;2.60;99.90;;;;;;5044723;28;20195;-86
2023/01/18 04:17:44;;;;;;;7.83;6.27;;;2.70;99.90;;;;;;5058042;28;20235;-87
2023/01/18 04:20:10;;;;;;;7.27;6.57;;;2.70;99.90;;;;;;5050580;28;20180;-86
2023/01/18 04:22:35;;;;;;;7.50;6.63;;;2.70;99.90;;;;;;5042842;28;20273;-86
2023/01/18 04:25:01;;;;;;;9.23;6.63;;;2.70;99.90;;;;;;5043918;28;20177;-87
2023/01/18 04:27:27;;;;;;;9.17;6.47;;;2.80;99.90;;;;;;5044702;28;20231;-88
2023/01/18 04:29:53;;;;;;;6.80;6.13;;;2.80;99.90;;;;;;5047767;28;20207;-86
2023/01/18 04:32:18;;;;;;;6.47;5.80;;;2.80;99.90;;;;;;5063539;28;20183;-89
2023/01/18 04:34:44;;;;;;;6.00;5.47;;;2.80;99.90;;;;;;5046814;28;20181;-88
2023/01/18 04:37:10;;;;;;;7.00;6.10;;;2.80;99.90;;;;;;5045884;28;20204;-85
2023/01/18 04:39:35;;;;;;;7.30;6.03;;;2.80;99.90;;;;;;5046722;28;20223;-85
2023/01/18 04:42:01;;;;;;;7.27;6.00;;;2.90;99.90;;;;;;5061289;28;20184;-86
2023/01/18 04:44:26;;;;;;;6.23;5.63;;;2.70;99.90;;;;;;5065845;28;20233;-86
2023/01/18 04:46:52;;;;;;;6.27;5.67;;;2.60;99.90;;;;;;5064619;28;20208;-87
2023/01/18 04:49:18;;;;;;;6.27;5.47;;;2.60;99.90;;;;;;5046369;28;20184;-86
2023/01/18 04:51:45;;;;;;;5.50;5.00;;;2.60;99.90;;;;;;5046485;28;20561;-87
2023/01/18 04:54:13;;;;;;;5.70;5.17;;;2.50;99.90;;;;;;5046993;28;20204;-85
2023/01/18 04:56:39;;;;;;;8.83;7.23;;;2.50;99.90;;;;;;5045703;28;20193;-85
2023/01/18 04:59:05;;;;;;;7.87;6.03;;;2.50;99.90;;;;;;5047300;28;20188;-86
2023/01/18 05:01:31;;;;;;;6.20;5.30;;;2.50;99.90;;;;;;5046727;28;20236;-86
2023/01/18 05:03:56;;;;;;;39.67;35.23;;;2.50;99.90;;;;;;5046779;28;20182;-85
2023/01/18 05:06:23;;;;;;;6.50;5.70;;;2.50;99.90;;;;;;5045508;28;20216;-86
2023/01/18 05:08:49;;;;;;;8.77;5.67;;;2.60;99.90;;;;;;5045639;28;20207;-87
2023/01/18 05:11:17;;;;;;;12.33;11.03;;;2.60;99.90;;;;;;5045759;28;20176;-89
2023/01/18 05:13:43;;;;;;;6.47;5.83;;;2.60;99.90;;;;;;5045294;28;20231;-86
2023/01/18 05:16:14;;;;;;;6.60;5.77;;;2.70;99.90;;;;;;5044900;28;20173;-88
2023/01/18 05:18:40;;;;;;;8.57;6.70;;;2.70;99.90;;;;;;5025511;28;20178;-89
2023/01/18 05:21:06;;;;;;;6.80;5.90;;;2.60;99.90;;;;;;5024426;28;20185;-87
2023/01/18 05:23:31;;;;;;;8.90;8.10;;;2.80;99.90;;;;;;5023641;28;20186;-88
2023/01/18 05:25:59;;;;;;;6.73;6.17;;;2.80;99.90;;;;;;5046519;28;20187;-87
2023/01/18 05:28:26;;;;;;;7.00;6.30;;;2.90;99.90;;;;;;5043837;28;20871;-86
2023/01/18 05:30:53;;;;;;;5.67;5.03;;;2.90;99.90;;;;;;5043269;28;20192;-85
2023/01/18 05:33:20;;;;;;;6.30;5.33;;;2.90;99.90;;;;;;5043526;28;20211;-85
2023/01/18 05:35:50;;;;;;;5.97;5.47;;;2.80;99.90;;;;;;5064339;28;20229;-86
2023/01/18 05:38:17;;;;;;;5.83;5.17;;;3.00;99.90;;;;;;5049822;28;20629;-86
2023/01/18 05:40:44;;;;;;;6.93;5.73;;;3.10;99.90;;;;;;5049465;28;20467;-88
2023/01/18 05:43:11;;;;;;;7.07;5.50;;;3.10;99.90;;;;;;5066354;28;20180;-87
2023/01/18 05:45:36;;;;;;;5.80;5.20;;;3.10;99.90;;;;;;5054645;28;20831;-85
2023/01/18 05:48:02;;;;;;;8.43;7.60;;;3.00;99.90;;;;;;5045469;28;20223;-88
2023/01/18 05:50:28;;;;;;;5.60;5.00;;;3.00;99.70;;;;;;5039053;28;20288;-86
2023/01/18 05:52:57;;;;;;;6.03;5.27;;;2.90;99.90;;;;;;5037523;28;20212;-87
2023/01/18 05:55:23;;;;;;;6.63;6.03;;;2.90;99.90;;;;;;5039155;28;20216;-88
2023/01/18 05:57:49;;;;;;;6.97;5.33;;;2.90;99.90;;;;;;5041268;28;20197;-85
2023/01/18 06:00:15;;;;;;;5.93;5.33;;;2.80;99.90;;;;;;5042824;28;20261;-85
2023/01/18 06:02:41;;;;;;;5.90;5.30;;;2.60;99.90;;;;;;5043460;28;20208;-86
2023/01/18 06:05:07;;;;;;;6.10;5.40;;;2.70;99.90;;;;;;5041051;28;20670;-86
2023/01/18 06:07:32;;;;;;;6.63;5.97;;;2.70;99.90;;;;;;5040639;28;20217;-86
2023/01/18 06:09:58;;;;;;;7.97;5.23;;;2.60;99.90;;;;;;5044040;28;20227;-90
2023/01/18 06:12:24;;;;;;;8.03;5.80;;;2.70;99.90;;;;;;5041592;28;20243;-85
2023/01/18 06:14:50;;;;;;;6.77;6.07;;;2.70;99.90;;;;;;5043106;28;20193;-85
2023/01/18 06:17:15;;;;;;;6.40;5.50;;;2.80;99.90;;;;;;5042420;28;20231;-89
2023/01/18 06:19:41;;;;;;;7.23;5.70;;;2.70;99.90;;;;;;5044110;28;20220;-86
2023/01/18 06:22:07;;;;;;;8.43;5.47;;;2.60;99.90;;;;;;5040070;28;20192;-88
2023/01/18 06:24:32;;;;;;;7.67;5.13;;;2.70;99.90;;;;;;5042310;28;20193;-85
2023/01/18 06:26:59;;;;;;;7.23;5.73;;;2.70;99.90;;;;;;5040183;28;20204;-90
2023/01/18 06:29:25;;;;;;;5.90;5.40;;;2.60;99.90;;;;;;5037032;28;20262;-87
2023/01/18 06:31:51;;;;;;;6.63;5.60;;;2.60;99.90;;;;;;5040758;28;20185;-85
2023/01/18 06:34:16;;;;;;;6.57;5.60;;;2.50;99.90;;;;;;5041204;28;20252;-87
2023/01/18 06:36:44;;;;;;;7.17;5.33;;;2.50;99.90;;;;;;5039417;28;20213;-86
2023/01/18 06:39:10;;;;;;;5.27;4.77;;;2.60;99.90;;;;;;5045747;28;20231;-86
2023/01/18 06:41:36;;;;;;;6.73;5.40;;;2.70;99.90;;;;;;5047660;28;20396;-86
2023/01/18 06:44:02;;;;;;;7.77;5.77;;;2.80;99.90;;;;;;5048692;28;20192;-86
2023/01/18 06:46:27;;;;;;;6.73;5.97;;;2.80;99.90;;;;;;5066858;28;20223;-85
2023/01/18 06:48:53;;;;;;;7.77;6.97;;;2.80;99.90;;;;;;5068064;28;20200;-84
2023/01/18 06:51:20;;;;;;;6.70;5.77;;;2.80;99.90;;;;;;5073920;28;20182;-88
2023/01/18 06:53:47;;;;;;;7.30;5.20;;;2.70;99.90;;;;;;5079500;28;20211;-89
2023/01/18 06:56:13;;;;;;;6.07;5.47;;;2.70;99.90;;;;;;5078819;28;20241;-88
2023/01/18 06:58:38;;;;;;;5.90;5.30;;;2.70;99.90;;;;;;5077509;28;20195;-88
2023/01/18 07:01:04;;;;;;;5.10;4.60;;;2.70;99.90;;;;;;5067550;28;20196;-85
2023/01/18 07:03:31;;;;;;;6.30;5.00;;;2.70;99.90;;;;;;5062153;28;20251;-86
2023/01/18 07:05:59;;;;;;;5.63;4.73;;;2.70;99.90;;;;;;5055368;28;20239;-86
2023/01/18 07:08:29;;;;;;;5.77;4.60;;;2.70;99.90;;;;;;5041864;28;20193;-86
2023/01/18 07:10:56;;;;;;;6.07;4.73;;;2.70;99.90;;;;;;5043583;28;20161;-86
2023/01/18 07:13:22;;;;;;;5.63;4.10;;;2.70;99.90;;;;;;5044358;28;20231;-87
2023/01/18 07:15:58;;;;;;;4.50;4.10;;;2.60;99.90;;;;;;5074770;28;20258;-86
2023/01/18 07:18:24;;;;;;;6.93;4.27;;;2.70;99.90;;;;;;5054942;28;20247;-85
2023/01/18 07:20:57;;;;;;;6.97;5.27;;;2.60;99.90;;;;;;5044301;28;20180;-84
2023/01/18 07:23:22;;;;;;;5.17;4.20;;;2.60;99.90;;;;;;5045445;28;20184;-86
2023/01/18 07:25:48;;;;;;;5.00;4.50;;;2.60;99.90;;;;;;5048582;28;20211;-87
2023/01/18 07:28:14;;;;;;;5.17;4.67;;;2.60;99.90;;;;;;5056922;28;20232;-87
2023/01/18 07:30:39;;;;;;;5.40;4.40;;;2.60;99.90;;;;;;5049865;28;20420;-85
2023/01/18 07:33:06;;;;;;;5.90;5.30;;;2.60;99.90;;;;;;5051098;28;20212;-88
2023/01/18 07:35:32;;;;;;;5.83;5.30;;;2.60;99.90;;;;;;5050341;28;20208;-85
2023/01/18 07:37:58;;;;;;;6.00;4.80;;;2.70;99.90;;;;;;5045942;28;20197;-85
2023/01/18 07:40:23;;;;;;;4.70;4.30;;;2.80;99.90;;;;;;5046795;28;20252;-87
2023/01/18 07:42:56;;;;;;;5.80;5.10;;;2.80;99.90;;;;;;5063599;28;20176;-87
2023/01/18 07:45:22;;;;;;;6.07;4.60;;;2.90;99.90;;;;;;5046514;28;20181;-87
2023/01/18 07:47:48;;;;;;;5.73;4.30;;;2.90;99.90;;;;;;5045443;28;20593;-87
2023/01/18 07:50:15;;;;;;;5.73;4.83;;;2.90;99.90;;;;;;5044874;28;20251;-86
2023/01/18 07:52:40;;;;;;;5.90;5.00;;;3.00;99.90;;;;;;5046372;28;20188;-86
2023/01/18 07:55:06;;;;;;;8.27;4.63;;;3.00;99.50;;;;;;5048226;28;20173;-85
2023/01/18 07:57:32;;;;;;;5.83;5.27;;;2.90;99.90;;;;;;5066719;28;20196;-84
2023/01/18 07:59:58;;;;;;;5.90;5.30;;;2.80;99.90;;;;;;5067899;28;20180;-85
2023/01/18 08:02:24;;;;;;;7.77;5.93;;;2.40;99.90;;;;;;5066072;28;20185;-88
2023/01/18 08:04:49;;;;;;;7.20;5.50;;;2.20;99.90;;;;;;5067526;28;20243;-85
2023/01/18 08:07:16;;;;;;;5.60;5.00;;;2.10;99.90;;;;;;5066230;28;20206;-86
2023/01/18 08:09:42;;;;;;;6.33;5.73;;;2.20;99.90;;;;;;5061207;28;20268;-87
2023/01/18 08:12:12;;;;;;;6.57;5.87;;;2.10;99.90;;;;;;5065714;28;20617;-87
2023/01/18 08:14:39;;;;;;;7.83;6.27;;;2.00;99.90;;;;;;5052285;28;20215;-87
2023/01/18 08:17:05;;;;;;;5.97;5.47;;;2.00;99.90;;;;;;5063582;28;20283;-87
2023/01/18 08:19:31;;;;;;;6.23;5.63;;;2.10;99.90;;;;;;5069083;28;20187;-85
2023/01/18 08:21:56;;;;;;;6.27;5.67;;;2.00;99.90;;;;;;5069477;28;20197;-89
2023/01/18 08:24:22;;;;;;;5.90;5.40;;;1.90;99.90;;;;;;5069201;28;20701;-85
2023/01/18 08:26:48;;;;;;;5.90;5.27;;;1.80;99.90;;;;;;5068738;28;20208;-87
2023/01/18 08:29:13;;;;;;;5.70;4.97;;;2.00;99.90;;;;;;5046347;28;20284;-87
2023/01/18 08:31:39;;;;;;;6.00;5.40;;;2.10;99.90;;;;;;5028194;28;20193;-88
2023/01/18 08:34:05;;;;;;;7.83;6.10;;;2.30;99.90;;;;;;5028772;28;20205;-86
2023/01/18 08:36:30;;;;;;;5.87;5.27;;;2.50;99.90;;;;;;5027685;28;20201;-86
2023/01/18 08:38:56;;;;;;;6.47;5.50;;;2.50;99.90;;;;;;5044516;28;20177;-85
2023/01/18 08:41:27;;;;;;;7.20;5.33;;;2.60;99.90;;;;;;5048610;28;20185;-85
2023/01/18 08:43:53;;;;;;;6.77;5.93;;;2.70;99.90;;;;;;5050709;28;20170;-86
2023/01/18 08:46:20;;;;;;;10.77;7.17;;;2.80;99.90;;;;;;5051113;28;20181;-86
2023/01/18 08:48:54;;;;;;;7.47;6.27;;;2.60;99.90;;;;;;5049517;28;20226;-86
2023/01/18 08:51:21;;;;;;;6.87;6.17;;;2.70;99.90;;;;;;5048129;28;20188;-86
2023/01/18 08:53:50;;;;;;;8.33;6.77;;;2.70;99.90;;;;;;5067938;28;20219;-85
2023/01/18 08:56:16;;;;;;;8.40;7.10;;;2.70;99.90;;;;;;5067271;28;20342;-85
2023/01/18 08:58:42;;;;;;;9.23;7.30;;;2.40;99.90;;;;;;5068299;28;20168;-87
2023/01/18 09:01:08;;;;;;;7.90;7.20;;;2.40;99.90;;;;;;5067393;28;20180;-86
2023/01/18 09:03:35;;;;;;;8.73;7.93;;;2.20;99.90;;;;;;5067253;28;20212;-87
2023/01/18 09:06:03;;;;;;;8.20;7.13;;;2.10;99.90;;;;;;5058686;28;20394;-87
2023/01/18 09:08:29;;;;;;;8.33;7.53;;;2.00;99.90;;;;;;5045875;28;20229;-87
2023/01/18 09:10:54;;;;;;;8.33;7.50;;;2.00;99.90;;;;;;5058174;28;20249;-86
2023/01/18 09:13:20;;;;;;;8.33;7.50;;;2.00;99.90;;;;;;5056156;28;20220;-87
2023/01/18 09:15:45;;;;;;;8.47;7.77;;;2.00;99.90;;;;;;5066455;28;20200;-86
2023/01/18 09:18:12;;;;;;;7.53;6.83;;;2.00;99.90;;;;;;5066334;28;20204;-90
2023/01/18 09:20:38;;;;;;;7.63;6.83;;;2.10;99.90;;;;;;5066130;28;20195;-85
2023/01/18 09:23:09;;;;;;;11.73;7.53;;;2.10;99.90;;;;;;5063960;28;20227;-86
2023/01/18 09:25:35;;;;;;;8.80;7.30;;;2.00;99.90;;;;;;5047188;28;20208;-85
2023/01/18 09:28:03;;;;;;;7.90;6.70;;;1.80;99.90;;;;;;5046582;28;20205;-87
2023/01/18 09:30:29;;;;;;;8.90;6.90;;;1.80;99.90;;;;;;5046959;28;20220;-85
2023/01/18 09:32:58;;;;;;;9.77;8.30;;;1.90;99.90;;;;;;5051408;28;20204;-86
2023/01/18 09:35:23;;;;;;;9.97;8.13;;;1.80;99.90;;;;;;5049625;28;20208;-85
2023/01/18 09:37:49;;;;;;;10.53;8.30;;;1.70;99.90;;;;;;5052042;28;20208;-86
2023/01/18 09:40:20;;;;;;;10.93;8.90;;;1.70;99.90;;;;;;5053136;28;20259;-84
2023/01/18 09:42:48;;;;;;;10.50;9.30;;;1.70;99.90;;;;;;5072516;28;20172;-87
2023/01/18 09:45:46;;;;;;;11.80;8.60;;;1.80;99.90;;;;;;5072313;28;20168;-88
2023/01/18 09:48:25;;;;;;;11.47;8.93;;;2.00;99.90;;;;;;5049554;28;20262;-87
2023/01/18 09:50:52;;;;;;;12.17;9.50;;;1.90;99.90;;;;;;5072923;28;20164;-88
2023/01/18 09:53:41;;;;;;;11.47;9.57;;;1.90;99.90;;;;;;5071561;28;20199;-87
2023/01/18 09:56:20;;;;;;;11.40;9.70;;;2.00;99.90;;;;;;5069940;28;20149;-88
2023/01/18 09:59:20;;;;;;;10.90;9.50;;;2.00;99.90;;;;;;5059258;28;20168;-88
2023/01/18 10:01:47;;;;;;;11.70;8.90;;;2.10;99.90;;;;;;5063714;28;20192;-87
2023/01/18 10:04:37;;;;;;;10.83;9.57;;;2.10;99.90;;;;;;5072055;28;20600;-86
2023/01/18 10:07:11;;;;;;;11.30;9.53;;;2.10;99.90;;;;;;5074113;28;20269;-88
2023/01/18 10:09:53;;;;;;;10.07;9.07;;;2.20;99.90;;;;;;5058877;28;20175;-87
2023/01/18 10:12:50;;;;;;;10.10;8.30;;;2.40;99.90;;;;;;5074043;28;20188;-87
2023/01/18 10:15:25;;;;;;;11.30;9.40;;;2.50;99.90;;;;;;5050485;28;20304;-87
2023/01/18 10:17:55;;;;;;;10.97;7.97;;;2.50;99.90;;;;;;5070744;28;20199;-86
2023/01/18 10:20:30;;;;;;;10.37;9.30;;;2.40;99.90;;;;;;5069767;28;20164;-87
2023/01/18 10:23:24;;;;;;;11.73;9.13;;;2.70;99.90;;;;;;5069337;28;20626;-85
2023/01/18 10:26:16;;;;;;;11.30;8.83;;;2.70;99.90;;;;;;5047675;28;20192;-87
2023/01/18 10:28:54;;;;;;;10.00;8.03;;;2.50;99.90;;;;;;5059568;28;20228;-87
2023/01/18 10:31:45;;;;;;;7.63;5.77;;;2.80;99.90;;;;;;5051278;28;20153;-87
2023/01/18 10:34:25;;;;;;;9.80;7.33;;;2.70;97.60;;;;;;5050764;28;20212;-87
2023/01/18 10:37:03;;;;;;;9.73;7.17;;;2.80;99.90;;;;;;5049659;28;20239;-88
2023/01/18 10:39:40;;;;;;;9.50;7.53;;;2.80;99.90;;;;;;5055612;28;20172;-89
2023/01/18 10:43:06;;;;;;;7.40;5.50;;;2.90;99.90;;;;;;5068607;28;20153;-87
2023/01/18 10:45:34;;;;;;;6.87;6.13;;;3.00;96.50;;;;;;5003475;28;20178;-87
2023/01/18 10:48:17;;;;;;;7.83;6.10;;;3.30;98.00;;;;;;4985386;28;20238;-88
2023/01/18 10:50:48;;;;;;;7.60;5.27;;;3.60;94.00;;;;;;5010917;28;20186;-86
2023/01/18 10:53:22;;;;;;;6.67;5.23;;;3.60;91.30;;;;;;5034644;28;20196;-86
2023/01/18 10:56:05;;;;;;;5.60;4.20;;;3.60;93.90;;;;;;5062735;28;20172;-87
2023/01/18 10:58:49;;;;;;;5.57;4.77;;;3.90;88.80;;;;;;5044913;28;20634;-87
2023/01/18 11:01:21;;;;;;;6.13;5.37;;;4.20;89.00;;;;;;5046801;28;20173;-87
2023/01/18 11:04:07;;;;;;;7.13;6.00;;;4.40;91.10;;;;;;5054272;28;20238;-86
2023/01/18 11:06:49;;;;;;;5.03;4.00;;;4.40;85.70;;;;;;5046225;28;20211;-86
2023/01/18 11:09:55;;;;;;;6.03;4.27;;;4.40;84.30;;;;;;5044974;28;20192;-86
2023/01/18 11:12:37;;;;;;;5.67;3.63;;;4.50;83.90;;;;;;5050344;28;20215;-87
2023/01/18 11:15:14;;;;;;;6.07;4.13;;;4.40;82.10;;;;;;5046198;28;20213;-87
2023/01/18 11:17:49;;;;;;;4.37;3.73;;;4.40;84.70;;;;;;5056866;28;20295;-87
2023/01/18 11:20:15;;;;;;;5.50;3.70;;;4.30;83.80;;;;;;5064990;28;20172;-87
2023/01/18 11:22:52;;;;;;;4.17;3.77;;;4.30;84.40;;;;;;5067190;28;20172;-88
2023/01/18 11:25:18;;;;;;;4.10;3.70;;;4.40;82.70;;;;;;5067286;28;20168;-85
2023/01/18 11:27:44;;;;;;;4.70;3.40;;;4.30;90.30;;;;;;5056171;28;20207;-86
2023/01/18 11:30:20;;;;;;;4.07;3.67;;;4.40;82.80;;;;;;5034986;28;20195;-86
2023/01/18 11:32:46;;;;;;;6.07;3.80;;;4.40;85.40;;;;;;5045214;28;20187;-88
2023/01/18 11:35:27;;;;;;;7.10;3.70;;;4.50;85.10;;;;;;5043800;28;20229;-86
2023/01/18 11:38:00;;;;;;;4.50;3.97;;;4.60;81.50;;;;;;5043155;28;20189;-87
2023/01/18 11:40:28;;;;;;;5.20;3.53;;;4.60;82.30;;;;;;5043973;28;20547;-87
2023/01/18 11:43:00;;;;;;;4.23;3.77;;;4.70;80.70;;;;;;5056403;28;20184;-86
2023/01/18 11:45:39;;;;;;;3.73;3.43;;;4.70;83.90;;;;;;5065541;28;20200;-88
2023/01/18 11:48:25;;;;;;;5.33;3.90;;;4.40;83.60;;;;;;5063869;28;20234;-86
2023/01/18 11:51:10;;;;;;;6.40;5.27;;;4.40;84.40;;;;;;5065781;28;20551;-87
2023/01/18 11:53:56;;;;;;;42.73;31.40;;;4.00;87.80;;;;;;5064218;28;20188;-87
2023/01/18 11:56:44;;;;;;;4.97;3.90;;;4.20;87.60;;;;;;5049403;28;20180;-88
2023/01/18 11:59:24;;;;;;;4.63;3.70;;;4.20;84.10;;;;;;5055101;28;20212;-87
2023/01/18 12:02:22;;;;;;;4.40;3.53;;;4.20;84.10;;;;;;5066898;28;20184;-88
2023/01/18 12:04:56;;;;;;;4.07;3.50;;;4.20;86.20;;;;;;5068515;28;20160;-86
2023/01/18 12:07:50;;;;;;;4.67;3.63;;;3.90;85.50;;;;;;5029177;28;20328;-87
2023/01/18 12:10:32;;;;;;;4.13;3.67;;;3.70;89.70;;;;;;5027890;28;20205;-87
2023/01/18 12:13:23;;;;;;;6.33;3.47;;;3.70;90.10;;;;;;5026662;28;20292;-88
2023/01/18 12:16:10;;;;;;;3.70;3.13;;;4.00;88.30;;;;;;5027675;28;20177;-84
2023/01/18 12:18:52;;;;;;;4.53;3.40;;;4.00;89.70;;;;;;5067504;28;20434;-90
2023/01/18 12:21:26;;;;;;;7.00;3.40;;;4.20;84.40;;;;;;5068329;28;20190;-88
2023/01/18 12:24:09;;;;;;;3.70;3.40;;;4.00;82.10;;;;;;5067227;28;20186;-86
2023/01/18 12:26:49;;;;;;;6.73;3.20;;;4.00;85.60;;;;;;5066805;28;20200;-86
2023/01/18 12:29:19;;;;;;;4.47;3.37;;;4.10;82.50;;;;;;5050777;28;20688;-86
2023/01/18 12:31:50;;;;;;;3.90;3.50;;;4.20;80.10;;;;;;5046064;28;20199;-86
2023/01/18 12:34:22;;;;;;;3.43;2.97;;;4.30;82.50;;;;;;5045744;28;20193;-88
2023/01/18 12:37:25;;;;;;;3.53;3.17;;;4.30;80.60;;;;;;5046392;28;20270;-87
2023/01/18 12:39:54;;;;;;;4.33;2.83;;;4.00;86.10;;;;;;5067196;28;20179;-90
2023/01/18 12:42:42;;;;;;;3.53;2.87;;;4.10;80.80;;;;;;5075986;28;20176;-88
2023/01/18 12:45:29;;;;;;;3.93;3.10;;;4.30;75.10;;;;;;5075917;28;20152;-89
2023/01/18 12:48:07;;;;;;;4.03;3.07;;;4.40;75.10;;;;;;5075064;28;20231;-88
2023/01/18 12:50:38;;;;;;;3.00;2.60;;;4.40;79.30;;;;;;5054275;28;20311;-87
2023/01/18 12:53:10;;;;;;;3.43;2.73;;;4.50;76.90;;;;;;5037816;28;20736;-85
2023/01/18 12:55:38;;;;;;;2.90;2.70;;;4.60;75.30;;;;;;5040877;28;20219;-87
2023/01/18 12:58:04;;;;;;;4.10;3.13;;;4.70;74.20;;;;;;5048436;28;20211;-86
2023/01/18 13:00:39;;;;;;;7.10;3.40;;;4.70;74.90;;;;;;5057397;28;20183;-86
2023/01/18 13:03:18;;;;;;;5.10;2.83;;;4.80;73.00;;;;;;5060567;28;20222;-86
2023/01/18 13:06:13;;;;;;;5.30;2.67;;;4.70;74.40;;;;;;5054667;28;20177;-86
2023/01/18 13:08:51;;;;;;;5.20;2.93;;;4.40;75.40;;;;;;5035261;28;20197;-86
2023/01/18 13:11:29;;;;;;;4.60;3.10;;;4.70;72.10;;;;;;5045485;28;20537;-85
2023/01/18 13:14:13;;;;;;;4.13;2.77;;;4.70;75.60;;;;;;5047043;28;20208;-88
2023/01/18 13:16:59;;;;;;;4.17;3.30;;;4.60;77.60;;;;;;5048603;28;20207;-87
2023/01/18 13:19:32;;;;;;;4.03;2.70;;;4.70;75.20;;;;;;5049628;28;20183;-86
2023/01/18 13:22:07;;;;;;;4.83;2.90;;;4.70;75.30;;;;;;5049018;28;20172;-87
2023/01/18 13:24:51;;;;;;;3.97;2.90;;;5.10;73.50;;;;;;5048766;28;20169;-85
2023/01/18 13:27:17;;;;;;;5.13;2.77;;;5.50;68.60;;;;;;5045574;28;20228;-86
2023/01/18 13:29:45;;;;;;;4.97;2.97;;;5.80;67.10;;;;;;5056838;28;20179;-86
2023/01/18 13:32:28;;;;;;;3.77;3.23;;;6.00;66.10;;;;;;5069409;28;20188;-85
2023/01/18 13:34:57;;;;;;;3.83;2.53;;;5.50;65.10;;;;;;5069509;28;20294;-86
2023/01/18 13:37:44;;;;;;;2.90;2.40;;;5.40;66.80;;;;;;5068377;28;20220;-86
2023/01/18 13:40:33;;;;;;;3.73;2.40;;;5.60;63.90;;;;;;5071031;28;20157;-87
2023/01/18 13:42:59;;;;;;;2.87;2.57;;;5.40;64.90;;;;;;5066821;28;20180;-88
2023/01/18 13:45:27;;;;;;;5.40;2.60;;;5.50;62.10;;;;;;5048387;28;20177;-87
2023/01/18 13:48:05;;;;;;;2.77;2.30;;;5.40;61.90;;;;;;5048624;28;20229;-88
2023/01/18 13:50:33;;;;;;;3.10;2.73;;;5.10;63.50;;;;;;5049619;28;20184;-88